Terminal Aerodrome Forecast
Issued by NWS Chicago, IL

Home | Current Version | Previous Version | Graphics & Text | Print | Product List | Glossary On
Versions: 1 2 3 4 5 6 7 8 9 10 11 12 13 14 15 16 17 18 19 20 21 22 23 24 25 26 27 28
000
FTUS43 KLOT 221746
TAFRFD
TAF
KRFD 221746Z 2218/2318 21008KT P6SM OVC150
     FM222000 20007KT P6SM VCSH SCT080 OVC120
     FM230100 02006KT P6SM SCT050 BKN100
     FM230800 06005KT 4SM BR SCT050 BKN100
     FM231400 08007KT P6SM VCSH SCT050 BKN080=

USA.gov is the U.S. government's official web portal to all federal, state and local government web resources and services.